sensor_id;sensor_type;location;lat;lon;timestamp;pressure;altitude;pressure_sealevel;temperature;humidity
61394;BME280;48555;50.952;-0.120;2023-05-03T00:01:48;102242.97;;;8.37;74.50
61394;BME280;48555;50.952;-0.120;2023-05-03T00:04:15;102267.84;;;8.48;74.99
61394;BME280;48555;50.952;-0.120;2023-05-03T00:06:42;102261.88;;;8.44;74.93
61394;BME280;48555;50.952;-0.120;2023-05-03T00:09:08;102270.69;;;8.41;75.71
61394;BME280;48555;50.952;-0.120;2023-05-03T00:11:35;102264.78;;;8.35;76.16
61394;BME280;48555;50.952;-0.120;2023-05-03T00:14:00;102264.03;;;8.33;76.01
61394;BME280;48555;50.952;-0.120;2023-05-03T00:16:26;102264.03;;;8.33;75.83
61394;BME280;48555;50.952;-0.120;2023-05-03T00:18:51;102270.19;;;8.30;76.45
61394;BME280;48555;50.952;-0.120;2023-05-03T00:21:17;102263.34;;;8.28;76.77
61394;BME280;48555;50.952;-0.120;2023-05-03T00:23:42;102251.34;;;8.24;76.95
61394;BME280;48555;50.952;-0.120;2023-05-03T00:26:07;102256.00;;;8.15;77.63
61394;BME280;48555;50.952;-0.120;2023-05-03T00:28:33;102251.84;;;8.10;78.29
61394;BME280;48555;50.952;-0.120;2023-05-03T00:31:06;102253.63;;;8.09;78.43
61394;BME280;48555;50.952;-0.120;2023-05-03T00:33:32;102251.84;;;8.10;78.45
61394;BME280;48555;50.952;-0.120;2023-05-03T00:35:57;102253.63;;;8.09;78.73
61394;BME280;48555;50.952;-0.120;2023-05-03T00:38:23;102251.00;;;8.09;78.71
61394;BME280;48555;50.952;-0.120;2023-05-03T00:40:54;102247.50;;;8.10;78.77
61394;BME280;48555;50.952;-0.120;2023-05-03T00:43:20;102240.69;;;8.06;78.88
61394;BME280;48555;50.952;-0.120;2023-05-03T00:45:45;102245.16;;;8.03;79.09
61394;BME280;48555;50.952;-0.120;2023-05-03T00:48:11;102242.63;;;8.01;79.08
61394;BME280;48555;50.952;-0.120;2023-05-03T00:50:37;102246.91;;;8.02;79.21
61394;BME280;48555;50.952;-0.120;2023-05-03T00:53:03;102246.41;;;7.92;80.05
61394;BME280;48555;50.952;-0.120;2023-05-03T00:55:29;102253.19;;;7.96;79.59
61394;BME280;48555;50.952;-0.120;2023-05-03T00:57:56;102244.66;;;7.93;80.25
61394;BME280;48555;50.952;-0.120;2023-05-03T01:00:23;102237.13;;;7.85;80.60
61394;BME280;48555;50.952;-0.120;2023-05-03T01:02:48;102237.50;;;7.74;81.19
61394;BME280;48555;50.952;-0.120;2023-05-03T01:05:14;102236.44;;;7.80;81.24
61394;BME280;48555;50.952;-0.120;2023-05-03T01:08:06;102232.88;;;7.83;81.04
61394;BME280;48555;50.952;-0.120;2023-05-03T01:10:47;102233.72;;;7.83;81.02
61394;BME280;48555;50.952;-0.120;2023-05-03T01:13:41;102241.53;;;7.83;80.78
61394;BME280;48555;50.952;-0.120;2023-05-03T01:16:27;102243.97;;;7.88;80.30
61394;BME280;48555;50.952;-0.120;2023-05-03T01:18:56;102242.16;;;7.90;80.41
61394;BME280;48555;50.952;-0.120;2023-05-03T01:21:26;102250.81;;;7.90;80.29
61394;BME280;48555;50.952;-0.120;2023-05-03T01:26:19;102237.28;;;7.81;80.84
61394;BME280;48555;50.952;-0.120;2023-05-03T01:28:45;102236.38;;;7.82;80.79
61394;BME280;48555;50.952;-0.120;2023-05-03T01:31:36;102233.72;;;7.83;80.61
61394;BME280;48555;50.952;-0.120;2023-05-03T01:36:52;102223.34;;;7.82;80.26
61394;BME280;48555;50.952;-0.120;2023-05-03T01:39:23;102224.16;;;7.84;80.20
61394;BME280;48555;50.952;-0.120;2023-05-03T01:41:51;102220.88;;;7.79;80.82
61394;BME280;48555;50.952;-0.120;2023-05-03T01:44:17;102216.50;;;7.79;80.93
61394;BME280;48555;50.952;-0.120;2023-05-03T01:46:44;102223.56;;;7.76;81.17
61394;BME280;48555;50.952;-0.120;2023-05-03T01:49:09;102226.06;;;7.79;81.14
61394;BME280;48555;50.952;-0.120;2023-05-03T01:51:35;102224.31;;;7.79;81.00
61394;BME280;48555;50.952;-0.120;2023-05-03T01:54:00;102218.31;;;7.77;81.03
61394;BME280;48555;50.952;-0.120;2023-05-03T01:56:26;102217.50;;;7.77;80.79
61394;BME280;48555;50.952;-0.120;2023-05-03T01:58:51;102219.44;;;7.70;81.67
61394;BME280;48555;50.952;-0.120;2023-05-03T02:01:16;102221.16;;;7.71;81.75
61394;BME280;48555;50.952;-0.120;2023-05-03T02:03:42;102215.88;;;7.72;81.84
61394;BME280;48555;50.952;-0.120;2023-05-03T02:19:34;102221.31;;;7.66;82.47
61394;BME280;48555;50.952;-0.120;2023-05-03T02:21:59;102222.16;;;7.67;82.44
61394;BME280;48555;50.952;-0.120;2023-05-03T02:24:25;102225.91;;;7.60;83.13
61394;BME280;48555;50.952;-0.120;2023-05-03T02:26:50;102224.25;;;7.57;83.71
61394;BME280;48555;50.952;-0.120;2023-05-03T02:29:15;102225.72;;;7.64;83.08
61394;BME280;48555;50.952;-0.120;2023-05-03T02:31:41;102227.31;;;7.68;83.00
61394;BME280;48555;50.952;-0.120;2023-05-03T02:34:06;102233.47;;;7.66;82.88
61394;BME280;48555;50.952;-0.120;2023-05-03T02:36:31;102224.66;;;7.70;82.54
61394;BME280;48555;50.952;-0.120;2023-05-03T02:38:57;102223.81;;;7.69;82.71
61394;BME280;48555;50.952;-0.120;2023-05-03T02:41:22;102228.09;;;7.70;82.46
61394;BME280;48555;50.952;-0.120;2023-05-03T02:43:47;102228.84;;;7.74;82.45
61394;BME280;48555;50.952;-0.120;2023-05-03T02:46:13;102220.97;;;7.76;82.12
61394;BME280;48555;50.952;-0.120;2023-05-03T02:48:38;102225.28;;;7.77;81.98
61394;BME280;48555;50.952;-0.120;2023-05-03T02:51:04;102219.22;;;7.76;81.53
61394;BME280;48555;50.952;-0.120;2023-05-03T02:53:30;102220.03;;;7.78;81.70
61394;BME280;48555;50.952;-0.120;2023-05-03T02:55:55;102217.50;;;7.77;81.20
61394;BME280;48555;50.952;-0.120;2023-05-03T02:58:21;102223.69;;;7.72;81.57
61394;BME280;48555;50.952;-0.120;2023-05-03T03:00:46;102226.38;;;7.71;81.92
61394;BME280;48555;50.952;-0.120;2023-05-03T03:03:12;102200.00;;;7.55;82.23
61394;BME280;48555;50.952;-0.120;2023-05-03T03:05:37;102210.19;;;7.61;82.68
61394;BME280;48555;50.952;-0.120;2023-05-03T03:08:02;102208.38;;;7.65;82.00
61394;BME280;48555;50.952;-0.120;2023-05-03T03:10:28;102199.78;;;7.61;82.18
61394;BME280;48555;50.952;-0.120;2023-05-03T03:12:53;102200.56;;;7.65;81.92
61394;BME280;48555;50.952;-0.120;2023-05-03T03:15:18;102206.59;;;7.65;81.92
61394;BME280;48555;50.952;-0.120;2023-05-03T03:17:44;102196.13;;;7.67;81.92
61394;BME280;48555;50.952;-0.120;2023-05-03T03:20:09;102199.63;;;7.66;81.88
61394;BME280;48555;50.952;-0.120;2023-05-03T03:22:38;102199.63;;;7.66;81.72
61394;BME280;48555;50.952;-0.120;2023-05-03T03:25:05;102190.25;;;7.62;81.84
61394;BME280;48555;50.952;-0.120;2023-05-03T03:27:31;102178.19;;;7.59;82.00
61394;BME280;48555;50.952;-0.120;2023-05-03T03:29:56;102172.50;;;7.48;81.90
61394;BME280;48555;50.952;-0.120;2023-05-03T03:32:21;102185.19;;;7.57;81.65
61394;BME280;48555;50.952;-0.120;2023-05-03T03:34:47;102176.53;;;7.57;81.96
61394;BME280;48555;50.952;-0.120;2023-05-03T03:37:12;102178.31;;;7.56;81.55
61394;BME280;48555;50.952;-0.120;2023-05-03T03:39:37;102174.94;;;7.53;81.68
61394;BME280;48555;50.952;-0.120;2023-05-03T03:42:05;102175.03;;;7.49;81.74
61394;BME280;48555;50.952;-0.120;2023-05-03T03:44:30;102172.44;;;7.49;81.93
61394;BME280;48555;50.952;-0.120;2023-05-03T03:46:56;102168.31;;;7.44;82.27
61394;BME280;48555;50.952;-0.120;2023-05-03T03:49:21;102173.63;;;7.41;82.82
61394;BME280;48555;50.952;-0.120;2023-05-03T03:51:46;102172.78;;;7.40;82.72
61394;BME280;48555;50.952;-0.120;2023-05-03T03:54:12;102159.84;;;7.39;82.76
61394;BME280;48555;50.952;-0.120;2023-05-03T03:56:38;102164.94;;;7.42;82.67
61394;BME280;48555;50.952;-0.120;2023-05-03T03:59:04;102155.59;;;7.36;82.31
61394;BME280;48555;50.952;-0.120;2023-05-03T04:01:30;102159.00;;;7.38;82.62
61394;BME280;48555;50.952;-0.120;2023-05-03T04:03:56;102163.31;;;7.38;82.63
61394;BME280;48555;50.952;-0.120;2023-05-03T04:06:21;102163.53;;;7.32;83.24
61394;BME280;48555;50.952;-0.120;2023-05-03T04:08:46;102159.19;;;7.32;82.99
61394;BME280;48555;50.952;-0.120;2023-05-03T04:11:12;102155.63;;;7.35;82.71
61394;BME280;48555;50.952;-0.120;2023-05-03T04:13:37;102155.94;;;7.25;83.67
61394;BME280;48555;50.952;-0.120;2023-05-03T04:16:05;102155.16;;;7.23;83.64
61394;BME280;48555;50.952;-0.120;2023-05-03T04:18:30;102150.00;;;7.22;84.04
61394;BME280;48555;50.952;-0.120;2023-05-03T04:20:55;102146.69;;;7.18;84.09
61394;BME280;48555;50.952;-0.120;2023-05-03T04:23:21;102150.06;;;7.20;84.35
61394;BME280;48555;50.952;-0.120;2023-05-03T04:25:46;102150.81;;;7.24;84.23
61394;BME280;48555;50.952;-0.120;2023-05-03T04:28:13;102152.50;;;7.25;84.14
61394;BME280;48555;50.952;-0.120;2023-05-03T04:30:42;102152.88;;;7.14;84.81
61394;BME280;48555;50.952;-0.120;2023-05-03T04:33:12;102149.38;;;7.15;85.03
61394;BME280;48555;50.952;-0.120;2023-05-03T04:35:39;102143.97;;;7.21;84.66
61394;BME280;48555;50.952;-0.120;2023-05-03T04:38:06;102154.38;;;7.21;84.69
61394;BME280;48555;50.952;-0.120;2023-05-03T04:40:32;102146.47;;;7.24;84.48
61394;BME280;48555;50.952;-0.120;2023-05-03T04:42:58;102141.38;;;7.21;85.04
61394;BME280;48555;50.952;-0.120;2023-05-03T04:45:25;102150.06;;;7.20;85.13
61394;BME280;48555;50.952;-0.120;2023-05-03T04:47:51;102153.41;;;7.24;84.99
61394;BME280;48555;50.952;-0.120;2023-05-03T04:50:16;102143.56;;;7.32;85.05
61394;BME280;48555;50.952;-0.120;2023-05-03T04:52:42;102142.25;;;7.45;84.71
61394;BME280;48555;50.952;-0.120;2023-05-03T04:55:07;102152.94;;;7.61;84.21
61394;BME280;48555;50.952;-0.120;2023-05-03T04:57:33;102146.50;;;7.71;83.53
61394;BME280;48555;50.952;-0.120;2023-05-03T04:59:59;102149.97;;;7.70;83.45
61394;BME280;48555;50.952;-0.120;2023-05-03T05:02:24;102145.66;;;7.71;83.14
61394;BME280;48555;50.952;-0.120;2023-05-03T05:04:51;102152.31;;;7.78;82.74
61394;BME280;48555;50.952;-0.120;2023-05-03T05:07:16;102146.50;;;7.71;82.94
61394;BME280;48555;50.952;-0.120;2023-05-03T05:09:42;102149.78;;;7.77;82.82
61394;BME280;48555;50.952;-0.120;2023-05-03T05:12:07;102149.56;;;7.83;82.60
61394;BME280;48555;50.952;-0.120;2023-05-03T05:14:33;102167.66;;;7.86;82.45
61394;BME280;48555;50.952;-0.120;2023-05-03T05:16:58;102160.19;;;8.00;82.32
61394;BME280;48555;50.952;-0.120;2023-05-03T05:19:24;102155.66;;;8.27;81.52
61394;BME280;48555;50.952;-0.120;2023-05-03T05:21:50;102156.00;;;8.41;80.70
61394;BME280;48555;50.952;-0.120;2023-05-03T05:24:16;102148.34;;;8.59;80.50
61394;BME280;48555;50.952;-0.120;2023-05-03T05:26:42;102152.00;;;8.75;79.34
61394;BME280;48555;50.952;-0.120;2023-05-03T05:29:07;102156.09;;;8.81;78.56
61394;BME280;48555;50.952;-0.120;2023-05-03T05:31:33;102154.94;;;8.88;78.37
61394;BME280;48555;50.952;-0.120;2023-05-03T05:33:59;102155.97;;;8.84;78.07
61394;BME280;48555;50.952;-0.120;2023-05-03T05:36:25;102155.53;;;8.95;77.97
61394;BME280;48555;50.952;-0.120;2023-05-03T05:38:50;102151.88;;;9.19;77.19
61394;BME280;48555;50.952;-0.120;2023-05-03T05:41:16;102163.13;;;9.40;76.69
61394;BME280;48555;50.952;-0.120;2023-05-03T05:43:41;102160.94;;;9.31;76.31
61394;BME280;48555;50.952;-0.120;2023-05-03T05:46:07;102162.44;;;9.37;75.84
61394;BME280;48555;50.952;-0.120;2023-05-03T05:48:32;102158.88;;;9.38;75.84
61394;BME280;48555;50.952;-0.120;2023-05-03T05:50:58;102161.72;;;9.33;76.11
61394;BME280;48555;50.952;-0.120;2023-05-03T05:53:23;102155.44;;;9.76;75.54
61394;BME280;48555;50.952;-0.120;2023-05-03T05:55:49;102159.56;;;10.37;74.07
61394;BME280;48555;50.952;-0.120;2023-05-03T05:58:14;102163.38;;;11.01;71.60
61394;BME280;48555;50.952;-0.120;2023-05-03T06:00:40;102163.81;;;11.60;69.77
61394;BME280;48555;50.952;-0.120;2023-05-03T06:03:06;102159.66;;;12.05;67.75
61394;BME280;48555;50.952;-0.120;2023-05-03T06:05:31;102160.31;;;12.40;65.72
61394;BME280;48555;50.952;-0.120;2023-05-03T06:07:57;102157.53;;;12.73;64.87
61394;BME280;48555;50.952;-0.120;2023-05-03T06:10:22;102153.19;;;13.03;62.86
61394;BME280;48555;50.952;-0.120;2023-05-03T06:12:47;102175.09;;;13.32;62.03
61394;BME280;48555;50.952;-0.120;2023-05-03T06:15:13;102168.53;;;13.68;61.27
61394;BME280;48555;50.952;-0.120;2023-05-03T06:17:38;102163.59;;;14.04;59.80
61394;BME280;48555;50.952;-0.120;2023-05-03T06:20:04;102165.25;;;14.47;59.05
61394;BME280;48555;50.952;-0.120;2023-05-03T06:22:30;102161.97;;;14.70;57.54
61394;BME280;48555;50.952;-0.120;2023-05-03T06:24:56;102166.25;;;14.98;57.10
61394;BME280;48555;50.952;-0.120;2023-05-03T06:27:21;102171.50;;;14.98;55.92
61394;BME280;48555;50.952;-0.120;2023-05-03T06:29:47;102165.28;;;14.99;55.91
61394;BME280;48555;50.952;-0.120;2023-05-03T06:32:14;102170.38;;;15.15;55.55
61394;BME280;48555;50.952;-0.120;2023-05-03T06:34:39;102164.97;;;15.55;55.15
61394;BME280;48555;50.952;-0.120;2023-05-03T06:37:05;102163.69;;;15.86;53.82
61394;BME280;48555;50.952;-0.120;2023-05-03T06:39:30;102172.44;;;16.11;53.21
61394;BME280;48555;50.952;-0.120;2023-05-03T06:41:55;102160.75;;;16.02;53.23
61394;BME280;48555;50.952;-0.120;2023-05-03T06:44:21;102150.44;;;16.23;52.81
61394;BME280;48555;50.952;-0.120;2023-05-03T06:46:46;102148.09;;;16.31;52.34
61394;BME280;48555;50.952;-0.120;2023-05-03T06:49:12;102154.16;;;16.45;51.81
61394;BME280;48555;50.952;-0.120;2023-05-03T06:51:37;102149.34;;;16.50;51.89
61394;BME280;48555;50.952;-0.120;2023-05-03T06:54:03;102143.41;;;16.59;51.52
61394;BME280;48555;50.952;-0.120;2023-05-03T06:56:33;102135.78;;;16.43;50.98
61394;BME280;48555;50.952;-0.120;2023-05-03T06:58:59;102143.25;;;16.49;51.05
61394;BME280;48555;50.952;-0.120;2023-05-03T07:01:25;102144.81;;;16.52;50.93
61394;BME280;48555;50.952;-0.120;2023-05-03T07:03:50;102146.34;;;16.43;50.56
61394;BME280;48555;50.952;-0.120;2023-05-03T07:06:16;102150.56;;;16.46;50.37
61394;BME280;48555;50.952;-0.120;2023-05-03T07:08:42;102146.75;;;16.26;49.96
61394;BME280;48555;50.952;-0.120;2023-05-03T07:11:08;102142.44;;;16.25;50.23
61394;BME280;48555;50.952;-0.120;2023-05-03T07:13:34;102145.28;;;16.22;50.08
61394;BME280;48555;50.952;-0.120;2023-05-03T07:15:59;102146.94;;;16.35;49.98
61394;BME280;48555;50.952;-0.120;2023-05-03T07:18:25;102145.97;;;16.12;50.08
61394;BME280;48555;50.952;-0.120;2023-05-03T07:20:51;102142.50;;;16.12;49.74
61394;BME280;48555;50.952;-0.120;2023-05-03T07:23:16;102134.50;;;16.01;49.66
61394;BME280;48555;50.952;-0.120;2023-05-03T07:25:42;102144.47;;;15.84;50.50
61394;BME280;48555;50.952;-0.120;2023-05-03T07:28:08;102140.91;;;15.85;50.55
61394;BME280;48555;50.952;-0.120;2023-05-03T07:30:34;102156.63;;;15.74;50.52
61394;BME280;48555;50.952;-0.120;2023-05-03T07:32:59;102147.25;;;15.70;50.72
61394;BME280;48555;50.952;-0.120;2023-05-03T07:35:24;102145.13;;;15.75;50.19
61394;BME280;48555;50.952;-0.120;2023-05-03T07:37:51;102143.84;;;15.81;50.15
61394;BME280;48555;50.952;-0.120;2023-05-03T07:40:17;102151.47;;;15.73;50.29
61394;BME280;48555;50.952;-0.120;2023-05-03T07:42:43;102152.28;;;15.73;50.74
61394;BME280;48555;50.952;-0.120;2023-05-03T07:45:09;102147.63;;;15.89;51.09
61394;BME280;48555;50.952;-0.120;2023-05-03T07:47:34;102131.97;;;15.99;50.28
61394;BME280;48555;50.952;-0.120;2023-05-03T07:50:02;102144.22;;;16.00;50.21
61394;BME280;48555;50.952;-0.120;2023-05-03T07:52:29;102134.66;;;16.10;49.93
61394;BME280;48555;50.952;-0.120;2023-05-03T07:54:55;102125.97;;;16.21;50.09
61394;BME280;48555;50.952;-0.120;2023-05-03T07:57:20;102126.69;;;16.23;49.49
61394;BME280;48555;50.952;-0.120;2023-05-03T07:59:47;102132.88;;;16.11;49.41
61394;BME280;48555;50.952;-0.120;2023-05-03T08:02:13;102141.59;;;16.00;49.58
61394;BME280;48555;50.952;-0.120;2023-05-03T08:04:38;102122.03;;;16.03;49.09
61394;BME280;48555;50.952;-0.120;2023-05-03T08:07:04;102127.97;;;15.94;49.72
61394;BME280;48555;50.952;-0.120;2023-05-03T08:09:29;102127.59;;;15.87;49.05
61394;BME280;48555;50.952;-0.120;2023-05-03T08:11:55;102133.34;;;15.68;49.75
61394;BME280;48555;50.952;-0.120;2023-05-03T08:14:22;102124.69;;;15.53;50.12
61394;BME280;48555;50.952;-0.120;2023-05-03T08:16:47;102120.38;;;15.39;50.50
61394;BME280;48555;50.952;-0.120;2023-05-03T08:19:13;102126.84;;;15.35;50.51
61394;BME280;48555;50.952;-0.120;2023-05-03T08:21:38;102114.50;;;15.36;51.00
61394;BME280;48555;50.952;-0.120;2023-05-03T08:24:04;102128.72;;;15.33;51.05
61394;BME280;48555;50.952;-0.120;2023-05-03T08:26:31;102126.06;;;15.46;51.17
61394;BME280;48555;50.952;-0.120;2023-05-03T08:28:57;102129.97;;;15.53;50.90
61394;BME280;48555;50.952;-0.120;2023-05-03T08:31:23;102127.00;;;15.58;50.02
61394;BME280;48555;50.952;-0.120;2023-05-03T08:33:48;102118.97;;;15.72;50.30
61394;BME280;48555;50.952;-0.120;2023-05-03T08:36:14;102122.00;;;15.92;49.64
61394;BME280;48555;50.952;-0.120;2023-05-03T08:38:39;102129.69;;;15.95;49.34
61394;BME280;48555;50.952;-0.120;2023-05-03T08:41:13;102130.44;;;15.84;49.25
61394;BME280;48555;50.952;-0.120;2023-05-03T08:43:43;102131.50;;;15.81;50.21
61394;BME280;48555;50.952;-0.120;2023-05-03T08:46:12;102123.22;;;15.99;50.11
61394;BME280;48555;50.952;-0.120;2023-05-03T08:48:38;102122.22;;;16.12;50.06
61394;BME280;48555;50.952;-0.120;2023-05-03T08:51:03;102121.22;;;16.38;49.67
61394;BME280;48555;50.952;-0.120;2023-05-03T08:53:29;102124.22;;;16.33;49.43
61394;BME280;48555;50.952;-0.120;2023-05-03T08:55:55;102118.13;;;16.32;50.30
61394;BME280;48555;50.952;-0.120;2023-05-03T08:58:20;102114.81;;;16.53;50.14
61394;BME280;48555;50.952;-0.120;2023-05-03T09:00:46;102111.72;;;16.59;49.06
61394;BME280;48555;50.952;-0.120;2023-05-03T09:03:12;102109.28;;;16.45;49.48
61394;BME280;48555;50.952;-0.120;2023-05-03T09:05:37;102110.53;;;16.63;49.41
61394;BME280;48555;50.952;-0.120;2023-05-03T09:08:09;102118.31;;;16.65;49.16
61394;BME280;48555;50.952;-0.120;2023-05-03T09:10:39;102126.94;;;16.55;49.03
61394;BME280;48555;50.952;-0.120;2023-05-03T09:13:06;102111.91;;;16.45;49.21
61394;BME280;48555;50.952;-0.120;2023-05-03T09:15:32;102113.44;;;16.36;49.50
61394;BME280;48555;50.952;-0.120;2023-05-03T09:18:08;102121.44;;;16.58;49.34
61394;BME280;48555;50.952;-0.120;2023-05-03T09:20:34;102116.13;;;16.83;49.44
61394;BME280;48555;50.952;-0.120;2023-05-03T09:23:01;102126.47;;;17.08;48.71
61394;BME280;48555;50.952;-0.120;2023-05-03T09:25:42;102116.91;;;17.18;47.84
61394;BME280;48555;50.952;-0.120;2023-05-03T09:28:08;102117.16;;;17.27;46.35
61394;BME280;48555;50.952;-0.120;2023-05-03T09:30:33;102104.63;;;16.95;47.29
61394;BME280;48555;50.952;-0.120;2023-05-03T09:32:58;102107.75;;;16.89;47.49
61394;BME280;48555;50.952;-0.120;2023-05-03T09:35:24;102105.44;;;16.84;47.38
61394;BME280;48555;50.952;-0.120;2023-05-03T09:37:49;102092.50;;;17.03;46.15
61394;BME280;48555;50.952;-0.120;2023-05-03T09:40:15;102103.28;;;16.89;46.39
61394;BME280;48555;50.952;-0.120;2023-05-03T09:43:09;102098.09;;;16.76;45.03
61394;BME280;48555;50.952;-0.120;2023-05-03T09:45:36;102086.44;;;16.79;45.73
61394;BME280;48555;50.952;-0.120;2023-05-03T09:48:02;102092.13;;;16.86;45.12
61394;BME280;48555;50.952;-0.120;2023-05-03T09:50:30;102084.66;;;16.91;45.49
61394;BME280;48555;50.952;-0.120;2023-05-03T09:53:00;102092.72;;;16.89;45.62
61394;BME280;48555;50.952;-0.120;2023-05-03T09:55:26;102084.53;;;16.81;44.19
61394;BME280;48555;50.952;-0.120;2023-05-03T09:57:53;102089.75;;;16.70;45.20
61394;BME280;48555;50.952;-0.120;2023-05-03T10:00:19;102078.00;;;16.63;46.07
61394;BME280;48555;50.952;-0.120;2023-05-03T10:02:47;102080.78;;;16.72;45.06
61394;BME280;48555;50.952;-0.120;2023-05-03T10:05:15;102077.69;;;16.78;42.98
61394;BME280;48555;50.952;-0.120;2023-05-03T10:07:42;102082.91;;;16.67;42.19
61394;BME280;48555;50.952;-0.120;2023-05-03T10:10:09;102077.84;;;16.53;43.09
61394;BME280;48555;50.952;-0.120;2023-05-03T10:12:35;102085.94;;;16.63;43.85
61394;BME280;48555;50.952;-0.120;2023-05-03T10:15:04;102079.56;;;16.65;42.38
61394;BME280;48555;50.952;-0.120;2023-05-03T10:17:34;102074.31;;;16.76;43.53
61394;BME280;48555;50.952;-0.120;2023-05-03T10:20:11;102068.09;;;16.77;43.60
61394;BME280;48555;50.952;-0.120;2023-05-03T10:25:35;102067.56;;;16.72;43.14
61394;BME280;48555;50.952;-0.120;2023-05-03T10:28:08;102069.56;;;16.57;43.41
61394;BME280;48555;50.952;-0.120;2023-05-03T10:30:37;102067.78;;;16.58;43.62
61394;BME280;48555;50.952;-0.120;2023-05-03T10:35:39;102068.81;;;16.79;43.43
61394;BME280;48555;50.952;-0.120;2023-05-03T10:38:24;102069.97;;;16.75;43.57
61394;BME280;48555;50.952;-0.120;2023-05-03T10:40:50;102064.25;;;16.93;43.42
61394;BME280;48555;50.952;-0.120;2023-05-03T10:46:01;102046.00;;;17.01;42.57
61394;BME280;48555;50.952;-0.120;2023-05-03T10:48:28;102043.13;;;17.15;42.43
61394;BME280;48555;50.952;-0.120;2023-05-03T10:50:55;102039.38;;;17.29;42.63
61394;BME280;48555;50.952;-0.120;2023-05-03T10:56:03;102031.56;;;17.50;40.59
61394;BME280;48555;50.952;-0.120;2023-05-03T10:58:51;102020.84;;;17.40;41.39
61394;BME280;48555;50.952;-0.120;2023-05-03T11:01:22;102018.09;;;17.42;42.04
61394;BME280;48555;50.952;-0.120;2023-05-03T11:03:57;102019.03;;;17.52;41.08
61394;BME280;48555;50.952;-0.120;2023-05-03T11:06:33;102014.47;;;17.54;41.62
61394;BME280;48555;50.952;-0.120;2023-05-03T11:09:00;102015.78;;;17.60;41.05
61394;BME280;48555;50.952;-0.120;2023-05-03T11:11:26;102008.56;;;17.62;40.84
61394;BME280;48555;50.952;-0.120;2023-05-03T11:13:52;102007.25;;;17.56;41.20
61394;BME280;48555;50.952;-0.120;2023-05-03T11:16:18;102003.28;;;17.51;41.34
61394;BME280;48555;50.952;-0.120;2023-05-03T11:18:44;101993.97;;;17.67;41.44
61394;BME280;48555;50.952;-0.120;2023-05-03T11:21:10;101991.31;;;17.67;40.99
61394;BME280;48555;50.952;-0.120;2023-05-03T11:23:38;101999.00;;;17.70;39.10
61394;BME280;48555;50.952;-0.120;2023-05-03T11:26:07;101991.31;;;17.67;38.39
61394;BME280;48555;50.952;-0.120;2023-05-03T11:28:33;101981.97;;;17.63;39.34
61394;BME280;48555;50.952;-0.120;2023-05-03T11:30:59;101972.31;;;17.74;39.63
61394;BME280;48555;50.952;-0.120;2023-05-03T11:33:27;101979.03;;;17.89;39.53
61394;BME280;48555;50.952;-0.120;2023-05-03T11:35:56;101976.19;;;18.02;38.77
61394;BME280;48555;50.952;-0.120;2023-05-03T11:38:22;101966.88;;;17.86;39.07
61394;BME280;48555;50.952;-0.120;2023-05-03T11:40:47;101965.53;;;17.92;39.72
61394;BME280;48555;50.952;-0.120;2023-05-03T11:43:13;101954.69;;;17.95;37.80
61394;BME280;48555;50.952;-0.120;2023-05-03T11:45:43;101955.84;;;18.02;39.44
61394;BME280;48555;50.952;-0.120;2023-05-03T11:48:12;101945.00;;;18.05;39.67
61394;BME280;48555;50.952;-0.120;2023-05-03T11:50:49;101953.97;;;18.14;39.54
61394;BME280;48555;50.952;-0.120;2023-05-03T11:53:24;101949.66;;;18.13;39.35
61394;BME280;48555;50.952;-0.120;2023-05-03T11:55:53;101950.22;;;18.16;39.01
61394;BME280;48555;50.952;-0.120;2023-05-03T12:00:47;101944.63;;;18.10;38.53
61394;BME280;48555;50.952;-0.120;2023-05-03T12:03:26;101938.00;;;18.25;38.66
61394;BME280;48555;50.952;-0.120;2023-05-03T12:05:54;101941.38;;;18.27;37.88
61394;BME280;48555;50.952;-0.120;2023-05-03T12:08:20;101945.06;;;18.15;38.36
61394;BME280;48555;50.952;-0.120;2023-05-03T12:10:49;101933.19;;;18.09;38.25
61394;BME280;48555;50.952;-0.120;2023-05-03T12:13:26;101934.59;;;18.13;39.12
61394;BME280;48555;50.952;-0.120;2023-05-03T12:15:58;101932.66;;;18.15;39.15
61394;BME280;48555;50.952;-0.120;2023-05-03T12:18:44;101929.75;;;18.19;38.00
61394;BME280;48555;50.952;-0.120;2023-05-03T12:21:10;101926.78;;;18.33;38.31
61394;BME280;48555;50.952;-0.120;2023-05-03T12:23:36;101916.88;;;18.35;37.70
61394;BME280;48555;50.952;-0.120;2023-05-03T12:26:02;101915.16;;;18.24;38.28
61394;BME280;48555;50.952;-0.120;2023-05-03T12:28:27;101925.84;;;18.44;38.80
61394;BME280;48555;50.952;-0.120;2023-05-03T12:30:52;101907.78;;;18.28;38.15
61394;BME280;48555;50.952;-0.120;2023-05-03T12:33:18;101902.88;;;18.23;38.42
61394;BME280;48555;50.952;-0.120;2023-05-03T12:35:45;101899.28;;;18.24;38.64
61394;BME280;48555;50.952;-0.120;2023-05-03T12:38:10;101900.63;;;18.19;37.81
61394;BME280;48555;50.952;-0.120;2023-05-03T12:40:36;101887.72;;;18.25;37.38
61394;BME280;48555;50.952;-0.120;2023-05-03T12:43:03;101901.34;;;18.21;36.86
61394;BME280;48555;50.952;-0.120;2023-05-03T12:45:28;101901.16;;;18.12;37.04
61394;BME280;48555;50.952;-0.120;2023-05-03T12:47:56;101884.31;;;18.13;36.77
61394;BME280;48555;50.952;-0.120;2023-05-03T12:50:21;101892.84;;;17.96;36.81
61394;BME280;48555;50.952;-0.120;2023-05-03T12:52:47;101882.19;;;17.86;36.97
61394;BME280;48555;50.952;-0.120;2023-05-03T12:55:12;101898.66;;;17.90;37.71
61394;BME280;48555;50.952;-0.120;2023-05-03T12:57:37;101888.22;;;17.88;36.92
61394;BME280;48555;50.952;-0.120;2023-05-03T13:00:05;101883.56;;;17.81;37.14
61394;BME280;48555;50.952;-0.120;2023-05-03T13:02:30;101890.78;;;17.79;37.80
61394;BME280;48555;50.952;-0.120;2023-05-03T13:04:56;101874.13;;;17.88;38.07
61394;BME280;48555;50.952;-0.120;2023-05-03T13:07:23;101880.69;;;17.93;36.31
61394;BME280;48555;50.952;-0.120;2023-05-03T13:09:55;101865.91;;;17.91;33.87
61394;BME280;48555;50.952;-0.120;2023-05-03T13:12:21;101869.44;;;17.91;35.57
61394;BME280;48555;50.952;-0.120;2023-05-03T13:14:48;101859.94;;;17.89;35.14
61394;BME280;48555;50.952;-0.120;2023-05-03T13:17:14;101867.53;;;17.82;35.45